createdAt,value
2023-05-17T00:00:09.882Z,15.95
2023-05-17T00:02:12.045Z,13.45
2023-05-17T00:04:14.103Z,12.10
2023-05-17T00:06:16.219Z,13.20
2023-05-17T00:08:18.352Z,9.57
2023-05-17T00:10:20.433Z,11.63
2023-05-17T00:12:22.482Z,13.50
2023-05-17T00:14:24.496Z,12.02
2023-05-17T00:16:26.640Z,13.90
2023-05-17T00:18:28.837Z,12.48
2023-05-17T00:20:31.091Z,10.07
2023-05-17T00:22:33.138Z,14.95
2023-05-17T00:24:35.177Z,11.43
2023-05-17T00:26:37.231Z,8.63
2023-05-17T00:28:39.198Z,13.18
2023-05-17T00:30:41.894Z,8.20
2023-05-17T00:32:45.885Z,9.15
2023-05-17T00:34:48.102Z,10.90
2023-05-17T00:36:50.112Z,11.85
2023-05-17T00:38:52.155Z,15.25
2023-05-17T00:40:54.464Z,10.52
2023-05-17T00:42:56.518Z,21.15
2023-05-17T00:44:58.519Z,10.20
2023-05-17T00:47:00.494Z,11.10
2023-05-17T00:49:02.501Z,13.05
2023-05-17T00:51:04.778Z,12.05
2023-05-17T00:53:07.117Z,11.82
2023-05-17T00:55:09.629Z,12.85
2023-05-17T00:57:11.812Z,7.78
2023-05-17T00:59:14.565Z,7.40
2023-05-17T01:01:16.887Z,16.33
2023-05-17T01:03:19.315Z,9.52
2023-05-17T01:05:21.421Z,11.02
2023-05-17T01:07:23.714Z,13.85
2023-05-17T01:09:25.772Z,8.73
2023-05-17T01:11:34.040Z,15.43
2023-05-17T01:13:42.512Z,10.05
2023-05-17T01:15:53.745Z,8.80
2023-05-17T01:18:00.515Z,8.27
2023-05-17T01:20:12.874Z,11.77
2023-05-17T01:22:18.536Z,11.15
2023-05-17T01:24:22.282Z,8.95
2023-05-17T01:26:34.891Z,10.20
2023-05-17T01:28:39.158Z,13.52
2023-05-17T01:30:42.407Z,8.88
2023-05-17T01:32:45.605Z,10.25
2023-05-17T01:34:47.720Z,9.63
2023-05-17T01:36:49.779Z,10.93
2023-05-17T01:38:51.899Z,10.82
2023-05-17T01:41:00.197Z,10.98
2023-05-17T01:43:10.679Z,15.07
2023-05-17T01:45:19.587Z,8.50
2023-05-17T01:47:34.884Z,9.95
2023-05-17T01:49:40.427Z,8.55
2023-05-17T01:51:48.339Z,10.13
2023-05-17T01:53:58.484Z,7.07
2023-05-17T01:56:06.424Z,10.40
2023-05-17T01:58:11.070Z,12.30
2023-05-17T02:00:14.836Z,6.25
2023-05-17T02:02:16.947Z,8.57
2023-05-17T02:04:19.947Z,10.73
2023-05-17T02:06:22.049Z,9.90
2023-05-17T02:08:24.136Z,5.63
2023-05-17T02:10:26.137Z,9.93
2023-05-17T02:12:28.313Z,8.57
2023-05-17T02:14:30.315Z,13.55
2023-05-17T02:16:32.326Z,9.90
2023-05-17T02:18:36.087Z,7.97
2023-05-17T02:20:38.716Z,12.18
2023-05-17T02:22:40.929Z,10.02
2023-05-17T02:24:43.312Z,10.77
2023-05-17T02:26:46.330Z,8.07
2023-05-17T02:28:48.681Z,8.02
2023-05-17T02:30:51.281Z,8.90
2023-05-17T02:32:53.382Z,12.38
2023-05-17T02:34:56.014Z,11.93
2023-05-17T02:36:58.100Z,8.00
2023-05-17T02:39:00.137Z,8.02
2023-05-17T02:41:02.153Z,7.97
2023-05-17T02:43:04.142Z,7.72
2023-05-17T02:45:06.958Z,7.63
2023-05-17T02:47:09.028Z,10.40
2023-05-17T02:49:11.099Z,13.13
2023-05-17T02:51:13.155Z,7.57
2023-05-17T02:53:15.179Z,8.57
2023-05-17T02:55:17.258Z,9.45
2023-05-17T02:57:19.320Z,11.30
2023-05-17T02:59:21.353Z,13.18
2023-05-17T03:01:23.940Z,14.50
2023-05-17T03:03:26.099Z,9.27
2023-05-17T03:05:28.510Z,14.32
2023-05-17T03:07:30.953Z,8.20
2023-05-17T03:09:33.097Z,11.18
2023-05-17T03:11:35.121Z,7.35
2023-05-17T03:13:37.262Z,10.65
2023-05-17T03:15:39.332Z,13.50
2023-05-17T03:17:41.561Z,12.07
2023-05-17T03:19:43.689Z,8.20
2023-05-17T03:21:45.812Z,9.98
2023-05-17T03:23:48.251Z,11.45
2023-05-17T03:25:50.272Z,9.10
2023-05-17T03:27:52.356Z,12.25
2023-05-17T03:29:54.491Z,11.52
2023-05-17T03:31:56.524Z,9.88
2023-05-17T03:33:58.690Z,13.02
2023-05-17T03:36:00.969Z,9.93
2023-05-17T03:38:02.949Z,12.45
2023-05-17T03:40:05.683Z,12.23
2023-05-17T03:42:07.768Z,8.73
2023-05-17T03:44:09.889Z,8.95
2023-05-17T03:46:12.024Z,12.13
2023-05-17T03:48:14.034Z,8.57
2023-05-17T03:50:16.191Z,11.75
2023-05-17T03:52:18.176Z,12.35
2023-05-17T03:54:20.199Z,10.52
2023-05-17T03:56:22.373Z,11.20
2023-05-17T03:58:24.452Z,5.57
2023-05-17T04:00:26.547Z,10.38
2023-05-17T04:02:28.535Z,13.15
2023-05-17T04:04:30.955Z,5.60
2023-05-17T04:06:33.083Z,13.20
2023-05-17T04:08:36.197Z,12.88
2023-05-17T04:10:42.135Z,9.05
2023-05-17T04:12:44.243Z,10.02
2023-05-17T04:14:46.262Z,10.65
2023-05-17T04:16:48.301Z,10.88
2023-05-17T04:18:53.128Z,11.35
2023-05-17T04:20:56.353Z,7.47
2023-05-17T04:22:58.375Z,9.88
2023-05-17T04:25:00.513Z,9.77
2023-05-17T04:27:05.436Z,12.65
2023-05-17T04:29:07.580Z,12.48
2023-05-17T04:31:09.753Z,9.57
2023-05-17T04:33:14.083Z,11.45
2023-05-17T04:35:16.561Z,14.25
2023-05-17T04:37:18.537Z,10.43
2023-05-17T04:39:20.956Z,13.65
2023-05-17T04:41:22.913Z,12.48
2023-05-17T04:43:24.903Z,8.30
2023-05-17T04:45:27.707Z,16.30
2023-05-17T04:47:30.146Z,13.48
2023-05-17T04:49:32.326Z,14.70
2023-05-17T04:51:34.274Z,10.13
2023-05-17T04:53:36.314Z,14.45
2023-05-17T04:55:38.277Z,11.27
2023-05-17T04:57:40.414Z,13.70
2023-05-17T04:59:42.389Z,11.77
2023-05-17T05:01:44.353Z,8.90
2023-05-17T05:03:46.452Z,14.73
2023-05-17T05:05:48.673Z,10.95
2023-05-17T05:07:50.715Z,14.07
2023-05-17T05:09:52.698Z,14.00
2023-05-17T05:11:54.701Z,10.90
2023-05-17T05:13:56.673Z,11.02
2023-05-17T05:15:58.748Z,8.55
2023-05-17T05:18:00.966Z,10.68
2023-05-17T05:20:03.270Z,14.77
2023-05-17T05:22:05.659Z,14.68
2023-05-17T05:24:08.630Z,12.93
2023-05-17T05:26:10.706Z,15.40
2023-05-17T05:28:12.755Z,16.63
2023-05-17T05:30:22.227Z,13.25
2023-05-17T05:32:24.602Z,13.18
2023-05-17T05:34:28.732Z,13.00
2023-05-17T05:36:31.126Z,12.43
2023-05-17T05:38:33.143Z,10.35
2023-05-17T05:40:35.258Z,17.80
2023-05-17T05:42:37.573Z,10.55
2023-05-17T05:44:39.678Z,10.80
2023-05-17T05:46:41.686Z,14.77
2023-05-17T05:48:45.036Z,12.68
2023-05-17T05:50:47.127Z,11.20
2023-05-17T05:52:49.168Z,11.63
2023-05-17T05:54:51.235Z,10.98
2023-05-17T05:56:53.895Z,14.30
2023-05-17T05:58:57.850Z,13.82
2023-05-17T06:01:00.486Z,11.20
2023-05-17T06:03:02.691Z,14.13
2023-05-17T06:05:06.406Z,10.63
2023-05-17T06:07:08.604Z,12.35
2023-05-17T06:09:12.535Z,12.43
2023-05-17T06:11:15.056Z,16.13
2023-05-17T06:13:17.162Z,12.07
2023-05-17T06:15:19.284Z,9.18
2023-05-17T06:17:21.786Z,11.73
2023-05-17T06:19:24.124Z,15.05
2023-05-17T06:21:26.316Z,15.43
2023-05-17T06:23:28.481Z,12.75
2023-05-17T06:25:30.787Z,11.57
2023-05-17T06:27:34.020Z,13.23
2023-05-17T06:29:36.896Z,14.95
2023-05-17T06:31:39.145Z,11.13
2023-05-17T06:33:41.344Z,20.05
2023-05-17T06:35:55.313Z,9.27
2023-05-17T06:37:58.794Z,10.10
2023-05-17T06:40:15.047Z,13.50
2023-05-17T06:42:18.271Z,13.02
2023-05-17T06:44:20.548Z,13.07
2023-05-17T06:46:22.713Z,12.65
2023-05-17T06:48:24.976Z,15.60
2023-05-17T06:50:28.846Z,11.98
2023-05-17T06:52:31.328Z,11.88
2023-05-17T06:54:33.416Z,9.02
2023-05-17T06:56:35.699Z,17.85
2023-05-17T06:58:37.940Z,10.60
2023-05-17T07:00:40.080Z,7.18
2023-05-17T07:02:42.844Z,13.77
2023-05-17T07:04:45.151Z,12.23
2023-05-17T07:06:47.633Z,13.32
2023-05-17T07:08:49.900Z,11.45
2023-05-17T07:10:52.815Z,10.70
2023-05-17T07:12:55.062Z,10.40
2023-05-17T07:14:57.344Z,10.98
2023-05-17T07:16:59.764Z,13.85
2023-05-17T07:19:03.504Z,13.10
2023-05-17T07:21:05.749Z,13.55
2023-05-17T07:23:07.989Z,17.42
2023-05-17T07:25:10.969Z,12.25
2023-05-17T07:27:13.134Z,13.77
2023-05-17T07:29:15.449Z,13.57
2023-05-17T07:31:18.464Z,13.50
2023-05-17T07:33:20.754Z,17.33
2023-05-17T07:35:22.940Z,12.07
2023-05-17T07:37:25.350Z,13.45
2023-05-17T07:39:27.739Z,14.10
2023-05-17T07:41:30.032Z,15.63
2023-05-17T07:43:32.254Z,11.52
2023-05-17T07:45:34.617Z,17.30
2023-05-17T07:47:36.941Z,11.07
2023-05-17T07:49:39.656Z,13.75
2023-05-17T07:51:41.966Z,14.50
2023-05-17T07:53:44.344Z,21.52
2023-05-17T07:55:47.965Z,11.82
2023-05-17T07:57:54.917Z,13.45
2023-05-17T07:59:57.038Z,14.30
2023-05-17T08:01:59.161Z,10.45
2023-05-17T08:04:07.798Z,11.30
2023-05-17T08:06:10.002Z,9.48
2023-05-17T08:08:12.237Z,10.82
2023-05-17T08:10:14.623Z,11.13
2023-05-17T08:12:16.858Z,14.77
2023-05-17T08:14:23.392Z,15.50
2023-05-17T08:16:26.674Z,16.60
2023-05-17T08:18:29.046Z,15.38
2023-05-17T08:20:31.383Z,11.27
2023-05-17T08:22:33.524Z,10.55
2023-05-17T08:24:41.654Z,12.90
2023-05-17T08:26:43.860Z,17.40
2023-05-17T08:28:47.327Z,13.43
2023-05-17T08:30:49.808Z,14.13
2023-05-17T08:32:52.447Z,12.38
2023-05-17T08:34:55.227Z,12.02
2023-05-17T08:36:57.712Z,10.60
2023-05-17T08:39:00.019Z,12.50
2023-05-17T08:41:03.403Z,10.85
2023-05-17T08:43:06.844Z,10.43
2023-05-17T08:45:10.628Z,15.45
2023-05-17T08:47:14.848Z,9.27
2023-05-17T08:49:17.567Z,13.85
2023-05-17T08:51:21.121Z,12.13
2023-05-17T08:53:24.451Z,12.10
2023-05-17T08:55:30.929Z,10.60
2023-05-17T08:57:34.776Z,13.00
2023-05-17T08:59:39.599Z,13.48
2023-05-17T09:01:44.089Z,10.57
2023-05-17T09:03:49.923Z,8.23
2023-05-17T09:05:54.795Z,15.90
2023-05-17T09:07:58.152Z,11.93
2023-05-17T09:10:00.776Z,11.60
2023-05-17T09:12:04.580Z,11.77
2023-05-17T09:14:07.718Z,14.68
2023-05-17T09:16:13.930Z,13.82
2023-05-17T09:18:19.347Z,9.70
2023-05-17T09:20:25.160Z,11.00
2023-05-17T09:22:27.358Z,6.47
2023-05-17T09:24:58.776Z,12.98
2023-05-17T09:27:10.212Z,14.30
2023-05-17T09:29:18.585Z,11.25
2023-05-17T09:31:29.300Z,9.38
2023-05-17T09:35:35.025Z,6.95
2023-05-17T09:37:47.025Z,10.40
2023-05-17T09:39:50.187Z,14.57
2023-05-17T09:41:57.909Z,11.05
2023-05-17T09:44:16.053Z,11.45
2023-05-17T09:46:20.588Z,7.93
2023-05-17T09:48:22.797Z,12.93
2023-05-17T09:50:26.259Z,8.65
2023-05-17T09:52:32.226Z,6.85
2023-05-17T09:55:01.743Z,6.50
2023-05-17T09:57:08.004Z,9.80
2023-05-17T09:59:13.316Z,7.20
2023-05-17T10:01:17.314Z,8.80
2023-05-17T10:03:19.986Z,6.93
2023-05-17T10:05:22.831Z,8.30
2023-05-17T10:07:28.041Z,9.45
2023-05-17T10:09:35.867Z,5.63
2023-05-17T10:11:39.548Z,12.90
2023-05-17T10:13:47.741Z,10.45
2023-05-17T10:15:51.062Z,9.57
2023-05-17T10:17:54.982Z,10.65
2023-05-17T10:19:59.333Z,10.65
2023-05-17T10:24:12.569Z,8.55
2023-05-17T10:26:16.487Z,7.22
2023-05-17T10:28:20.273Z,9.48
2023-05-17T10:30:23.155Z,7.72
2023-05-17T10:32:29.152Z,18.35
2023-05-17T10:34:32.261Z,6.22
2023-05-17T10:36:34.730Z,8.98
2023-05-17T10:38:42.650Z,6.55
2023-05-17T10:40:47.641Z,9.95
2023-05-17T10:42:53.308Z,5.75
2023-05-17T10:44:55.526Z,7.63
2023-05-17T10:47:00.525Z,5.60
2023-05-17T10:49:03.996Z,11.15
2023-05-17T10:51:07.747Z,6.18
2023-05-17T10:53:11.580Z,9.02
2023-05-17T10:55:13.998Z,8.45
2023-05-17T10:57:21.145Z,8.48
2023-05-17T10:59:27.121Z,6.93
2023-05-17T11:01:35.443Z,9.63
2023-05-17T11:03:40.322Z,7.00
2023-05-17T11:05:45.007Z,7.10
2023-05-17T11:07:49.823Z,5.65
2023-05-17T11:09:56.961Z,5.53
2023-05-17T11:12:05.686Z,7.15
2023-05-17T11:14:16.907Z,7.28
2023-05-17T11:16:22.973Z,9.45
2023-05-17T11:18:34.275Z,6.80
2023-05-17T11:20:39.047Z,6.88
2023-05-17T11:22:43.779Z,9.55
2023-05-17T11:24:51.508Z,6.60
2023-05-17T11:26:56.423Z,8.75
2023-05-17T11:29:03.090Z,8.02
2023-05-17T11:31:05.635Z,7.68
2023-05-17T11:33:20.612Z,8.95
2023-05-17T11:35:30.167Z,9.13
2023-05-17T11:37:32.828Z,11.50
2023-05-17T11:39:34.989Z,6.30
2023-05-17T11:41:41.815Z,5.45
2023-05-17T11:44:01.929Z,10.05
2023-05-17T11:46:06.977Z,8.68
2023-05-17T11:48:09.785Z,7.72
2023-05-17T11:50:14.827Z,7.80
2023-05-17T11:52:17.429Z,8.15
2023-05-17T11:54:23.708Z,7.25
2023-05-17T11:56:39.394Z,4.63
2023-05-17T11:58:45.765Z,7.72
2023-05-17T12:00:54.249Z,8.85
2023-05-17T12:02:56.387Z,9.65
2023-05-17T12:04:59.217Z,6.90
2023-05-17T12:07:01.855Z,9.35
2023-05-17T12:09:06.423Z,7.18
2023-05-17T12:11:12.711Z,6.47
2023-05-17T12:13:14.846Z,10.20
2023-05-17T12:15:19.650Z,6.05
2023-05-17T12:17:28.279Z,9.93
2023-05-17T12:19:32.933Z,7.75
2023-05-17T12:21:35.544Z,5.72
2023-05-17T12:23:42.028Z,10.05
2023-05-17T12:25:44.293Z,6.40
2023-05-17T12:27:47.001Z,6.55
2023-05-17T12:29:49.258Z,5.35
2023-05-17T12:31:54.123Z,11.73
2023-05-17T12:36:15.841Z,6.45
2023-05-17T12:38:19.959Z,5.78
2023-05-17T12:40:22.214Z,9.88
2023-05-17T12:42:24.459Z,8.98
2023-05-17T12:44:34.834Z,6.55
2023-05-17T12:46:37.377Z,7.95
2023-05-17T12:48:44.392Z,7.32
2023-05-17T12:50:49.284Z,9.30
2023-05-17T12:52:51.804Z,12.65
2023-05-17T12:54:54.007Z,7.32
2023-05-17T12:56:56.809Z,10.27
2023-05-17T12:59:05.159Z,9.95
2023-05-17T13:01:11.721Z,14.27
2023-05-17T13:03:15.022Z,8.82
2023-05-17T13:05:21.909Z,8.05
2023-05-17T13:07:25.577Z,8.52
2023-05-17T13:09:31.327Z,10.07
2023-05-17T13:11:41.299Z,9.93
2023-05-17T13:13:43.952Z,9.35
2023-05-17T13:15:48.127Z,8.60
2023-05-17T13:17:50.960Z,7.53
2023-05-17T13:19:54.506Z,7.95
2023-05-17T13:21:57.322Z,7.82
2023-05-17T13:24:17.251Z,6.28
2023-05-17T13:26:20.394Z,10.73
2023-05-17T13:28:23.088Z,9.68
2023-05-17T13:30:26.448Z,6.82
2023-05-17T13:32:29.231Z,10.65
2023-05-17T13:34:31.637Z,10.23
2023-05-17T13:36:34.444Z,7.90
2023-05-17T13:38:37.001Z,8.02
2023-05-17T13:40:39.642Z,5.28
2023-05-17T13:42:42.103Z,6.00
2023-05-17T13:44:44.675Z,6.18
2023-05-17T13:46:47.229Z,6.82
2023-05-17T13:48:49.959Z,7.82
2023-05-17T13:50:53.401Z,10.00
2023-05-17T13:52:55.621Z,8.30
2023-05-17T13:54:58.128Z,8.50
2023-05-17T13:57:00.870Z,7.32
2023-05-17T13:59:03.883Z,5.38
2023-05-17T14:01:12.196Z,8.23
2023-05-17T14:03:15.477Z,4.88
2023-05-17T14:05:18.607Z,8.48
2023-05-17T14:07:20.704Z,6.65
2023-05-17T14:09:23.656Z,4.85
2023-05-17T14:11:26.369Z,9.13
2023-05-17T14:13:28.770Z,6.55
2023-05-17T14:15:31.573Z,5.68
2023-05-17T14:17:34.156Z,6.95
2023-05-17T14:19:36.951Z,7.78
2023-05-17T14:21:39.524Z,6.30
2023-05-17T14:23:41.916Z,11.15
2023-05-17T14:25:44.566Z,8.23
2023-05-17T14:27:47.566Z,5.03
2023-05-17T14:29:50.192Z,8.70
2023-05-17T14:31:52.940Z,7.10
2023-05-17T14:33:55.335Z,9.63
2023-05-17T14:35:58.191Z,7.15
2023-05-17T14:38:00.586Z,7.10
2023-05-17T14:40:06.428Z,8.00
2023-05-17T14:42:09.619Z,9.40
2023-05-17T14:44:13.468Z,7.25
2023-05-17T14:46:16.527Z,7.68
2023-05-17T14:48:19.319Z,7.72
2023-05-17T14:50:22.251Z,6.00
2023-05-17T14:52:25.067Z,10.38
2023-05-17T14:54:32.484Z,9.25
2023-05-17T14:56:35.145Z,6.95
2023-05-17T14:58:38.325Z,9.20
2023-05-17T15:00:42.172Z,5.40
2023-05-17T15:02:44.975Z,5.38
2023-05-17T15:04:47.957Z,6.07
2023-05-17T15:06:51.551Z,9.55
2023-05-17T15:08:55.209Z,8.55
2023-05-17T15:10:58.580Z,10.35
2023-05-17T15:13:00.926Z,8.48
2023-05-17T15:15:03.660Z,5.70
2023-05-17T15:17:06.499Z,7.15
2023-05-17T15:19:09.145Z,6.28
2023-05-17T15:21:12.091Z,6.35
2023-05-17T15:23:14.831Z,8.65
2023-05-17T15:25:17.686Z,5.63
2023-05-17T15:27:20.109Z,6.88
2023-05-17T15:29:22.839Z,8.68
2023-05-17T15:31:25.718Z,5.93
2023-05-17T15:33:28.681Z,7.20
2023-05-17T15:35:31.837Z,4.60
2023-05-17T15:37:34.490Z,6.25
2023-05-17T15:39:37.146Z,5.53
2023-05-17T15:41:40.856Z,6.30
2023-05-17T15:43:43.900Z,6.65
2023-05-17T15:45:46.870Z,6.65
2023-05-17T15:47:50.372Z,7.30
2023-05-17T15:49:53.453Z,6.45
2023-05-17T15:51:59.598Z,8.27
2023-05-17T15:54:02.670Z,9.52
2023-05-17T15:56:05.450Z,9.55
2023-05-17T15:58:10.038Z,9.75
2023-05-17T16:00:25.643Z,7.05
2023-05-17T16:02:28.833Z,10.25
2023-05-17T16:04:31.714Z,13.25
2023-05-17T16:06:36.490Z,10.50
2023-05-17T16:08:39.561Z,12.13
2023-05-17T16:10:42.432Z,13.25
2023-05-17T16:12:45.199Z,10.68
2023-05-17T16:14:48.342Z,15.13
2023-05-17T16:16:53.917Z,13.07
2023-05-17T16:18:58.953Z,8.68
2023-05-17T16:21:04.280Z,12.98
2023-05-17T16:23:07.398Z,16.48
2023-05-17T16:25:09.921Z,9.63
2023-05-17T16:27:13.064Z,9.88
2023-05-17T16:29:17.610Z,18.08
2023-05-17T16:31:21.106Z,13.32
2023-05-17T16:33:24.104Z,14.55
2023-05-17T16:35:28.139Z,11.30
2023-05-17T16:37:31.305Z,8.93
2023-05-17T16:39:33.929Z,15.23
2023-05-17T16:41:38.111Z,8.05
2023-05-17T16:43:40.886Z,13.35
2023-05-17T16:45:45.549Z,14.25
2023-05-17T16:47:48.322Z,10.20
2023-05-17T16:49:51.872Z,15.95
2023-05-17T16:51:55.659Z,15.27
2023-05-17T16:54:00.453Z,13.13
2023-05-17T16:56:03.229Z,14.70
2023-05-17T16:58:06.701Z,20.88
2023-05-17T17:00:10.851Z,12.65
2023-05-17T17:02:13.738Z,13.23
2023-05-17T17:04:21.514Z,16.55
2023-05-17T17:06:24.193Z,16.77
2023-05-17T17:08:27.377Z,11.88
2023-05-17T17:10:39.766Z,14.45
2023-05-17T17:12:42.826Z,12.30
2023-05-17T17:14:59.638Z,15.88
2023-05-17T17:17:20.277Z,13.68
2023-05-17T17:19:38.435Z,14.55
2023-05-17T17:21:43.314Z,15.52
2023-05-17T17:24:15.214Z,18.73
2023-05-17T17:26:24.382Z,12.15
2023-05-17T17:30:42.352Z,12.07
2023-05-17T17:32:45.120Z,14.20
2023-05-17T17:34:48.157Z,17.23
2023-05-17T17:36:51.380Z,14.77
2023-05-17T17:38:53.136Z,11.75
2023-05-17T17:40:55.829Z,15.00
2023-05-17T17:42:58.571Z,15.88
2023-05-17T17:45:17.851Z,15.48
2023-05-17T17:47:30.406Z,11.38
2023-05-17T17:49:33.703Z,12.48
2023-05-17T17:51:36.419Z,15.32
2023-05-17T17:53:49.178Z,14.65
2023-05-17T17:55:52.079Z,14.05
2023-05-17T17:57:54.698Z,12.52
2023-05-17T17:59:58.474Z,17.98
2023-05-17T18:02:01.757Z,18.40
2023-05-17T18:04:06.552Z,13.77
2023-05-17T18:06:08.927Z,15.32
2023-05-17T18:08:11.159Z,14.48
2023-05-17T18:10:13.808Z,20.17
2023-05-17T18:12:16.801Z,16.95
2023-05-17T18:14:19.986Z,13.48
2023-05-17T18:16:22.335Z,14.18
2023-05-17T18:18:24.862Z,16.23
2023-05-17T18:20:27.627Z,16.75
2023-05-17T18:22:30.386Z,18.90
2023-05-17T18:24:32.914Z,13.55
2023-05-17T18:26:35.588Z,18.00
2023-05-17T18:28:42.262Z,15.77
2023-05-17T18:30:45.546Z,13.45
2023-05-17T18:32:47.936Z,15.70
2023-05-17T18:34:50.214Z,20.92
2023-05-17T18:36:52.377Z,15.43
2023-05-17T18:38:58.766Z,16.98
2023-05-17T18:41:01.179Z,17.15
2023-05-17T18:43:03.412Z,17.10
2023-05-17T18:45:06.855Z,14.13
2023-05-17T18:47:09.234Z,16.90
2023-05-17T18:49:12.681Z,20.00
2023-05-17T18:51:16.227Z,18.48
2023-05-17T18:53:18.777Z,21.25
2023-05-17T18:55:21.740Z,25.75
2023-05-17T18:57:24.234Z,16.25
2023-05-17T18:59:26.692Z,18.45
2023-05-17T19:01:29.449Z,13.07
2023-05-17T19:03:32.221Z,14.93
2023-05-17T19:05:34.499Z,15.07
2023-05-17T19:07:36.947Z,16.45
2023-05-17T19:09:39.106Z,15.57
2023-05-17T19:11:41.494Z,18.15
2023-05-17T19:13:44.225Z,14.38
2023-05-17T19:15:46.488Z,13.40
2023-05-17T19:17:48.828Z,19.80
2023-05-17T19:19:51.333Z,19.95
2023-05-17T19:21:53.894Z,20.88
2023-05-17T19:23:58.640Z,14.93
2023-05-17T19:26:01.022Z,16.83
2023-05-17T19:28:03.439Z,14.18
2023-05-17T19:30:07.903Z,12.10
2023-05-17T19:32:10.264Z,14.48
2023-05-17T19:34:12.729Z,13.63
2023-05-17T19:36:15.224Z,21.40
2023-05-17T19:38:18.362Z,9.70
2023-05-17T19:40:22.494Z,14.95
2023-05-17T19:42:25.128Z,16.48
2023-05-17T19:44:27.415Z,15.38
2023-05-17T19:46:29.646Z,19.63
2023-05-17T19:48:42.622Z,19.95
2023-05-17T19:50:44.847Z,18.05
2023-05-17T19:52:47.756Z,12.98
2023-05-17T19:54:50.032Z,16.00
2023-05-17T19:56:52.205Z,18.63
2023-05-17T19:58:54.483Z,18.08
2023-05-17T20:00:56.847Z,19.65
2023-05-17T20:02:59.199Z,20.50
2023-05-17T20:05:03.830Z,15.35
2023-05-17T20:07:06.396Z,15.55
2023-05-17T20:09:08.596Z,11.45
2023-05-17T20:11:11.565Z,21.65
2023-05-17T20:13:13.857Z,16.00
2023-05-17T20:15:16.503Z,15.55
2023-05-17T20:17:19.908Z,11.30
2023-05-17T20:19:22.220Z,13.68
2023-05-17T20:21:26.698Z,21.98
2023-05-17T20:23:29.039Z,12.75
2023-05-17T20:25:31.410Z,17.85
2023-05-17T20:27:33.757Z,16.80
2023-05-17T20:29:36.340Z,17.60
2023-05-17T20:31:38.860Z,24.60
2023-05-17T20:33:41.567Z,14.75
2023-05-17T20:35:43.964Z,14.00
2023-05-17T20:37:46.138Z,16.88
2023-05-17T20:39:48.430Z,21.17
2023-05-17T20:41:50.661Z,14.70
2023-05-17T20:43:53.543Z,17.42
2023-05-17T20:45:55.915Z,15.75
2023-05-17T20:47:58.249Z,15.32
2023-05-17T20:50:00.547Z,14.93
2023-05-17T20:52:03.620Z,15.25
2023-05-17T20:54:06.537Z,13.02
2023-05-17T20:56:08.804Z,13.35
2023-05-17T20:58:11.579Z,25.33
2023-05-17T21:00:17.343Z,18.05
2023-05-17T21:02:20.112Z,13.90
2023-05-17T21:04:22.457Z,15.25
2023-05-17T21:06:27.413Z,13.65
2023-05-17T21:08:29.570Z,22.55
2023-05-17T21:10:32.121Z,13.13
2023-05-17T21:12:35.803Z,16.80
2023-05-17T21:14:38.000Z,17.58
2023-05-17T21:16:40.312Z,24.00
2023-05-17T21:18:45.049Z,17.73
2023-05-17T21:20:47.752Z,15.20
2023-05-17T21:22:49.971Z,17.75
2023-05-17T21:24:52.878Z,17.67
2023-05-17T21:26:55.231Z,17.70
2023-05-17T21:28:57.404Z,15.80
2023-05-17T21:30:59.886Z,18.05
2023-05-17T21:33:02.439Z,21.83
2023-05-17T21:35:05.032Z,21.77
2023-05-17T21:37:07.162Z,16.80
2023-05-17T21:39:09.319Z,15.90
2023-05-17T21:41:11.568Z,15.85
2023-05-17T21:43:13.631Z,19.35
2023-05-17T21:45:15.691Z,12.48
2023-05-17T21:47:20.724Z,15.82
2023-05-17T21:49:22.928Z,16.83
2023-05-17T21:51:25.092Z,21.73
2023-05-17T21:53:27.228Z,17.85
2023-05-17T21:55:40.837Z,15.75
2023-05-17T21:57:51.351Z,13.40
2023-05-17T21:59:53.562Z,12.65
2023-05-17T22:01:55.814Z,19.63
2023-05-17T22:04:01.305Z,18.52
2023-05-17T22:06:04.301Z,20.40
2023-05-17T22:08:06.553Z,15.95
2023-05-17T22:10:10.024Z,19.73
2023-05-17T22:12:12.467Z,17.42
2023-05-17T22:14:14.576Z,14.98
2023-05-17T22:16:17.188Z,19.08
2023-05-17T22:18:19.641Z,17.05
2023-05-17T22:20:23.994Z,20.10
2023-05-17T22:22:27.005Z,12.20
2023-05-17T22:24:29.181Z,15.60
2023-05-17T22:26:31.489Z,11.20
2023-05-17T22:28:34.035Z,19.77
2023-05-17T22:30:36.459Z,10.93
2023-05-17T22:32:38.726Z,16.13
2023-05-17T22:34:41.293Z,11.70
2023-05-17T22:36:43.648Z,16.33
2023-05-17T22:38:46.545Z,19.15
2023-05-17T22:40:48.538Z,14.63
2023-05-17T22:42:52.094Z,15.73
2023-05-17T22:44:54.121Z,18.65
2023-05-17T22:46:57.895Z,18.63
2023-05-17T22:48:59.994Z,16.67
2023-05-17T22:51:02.334Z,15.48
2023-05-17T22:53:06.126Z,12.07
2023-05-17T22:55:09.294Z,19.27
2023-05-17T22:57:11.636Z,10.98
2023-05-17T22:59:13.727Z,13.00
2023-05-17T23:01:15.933Z,12.50
2023-05-17T23:03:19.713Z,8.82
2023-05-17T23:05:22.407Z,20.65
2023-05-17T23:07:24.478Z,13.13
2023-05-17T23:09:27.470Z,15.55
2023-05-17T23:11:30.078Z,12.32
2023-05-17T23:13:32.164Z,10.45
2023-05-17T23:15:34.597Z,8.55
2023-05-17T23:17:36.790Z,11.15
2023-05-17T23:19:40.689Z,11.73
2023-05-17T23:21:43.444Z,10.70
2023-05-17T23:23:45.530Z,13.38
2023-05-17T23:25:48.796Z,13.07
2023-05-17T23:27:51.065Z,9.95
2023-05-17T23:29:54.266Z,15.10
2023-05-17T23:31:56.423Z,10.02
2023-05-17T23:33:58.446Z,10.23
2023-05-17T23:36:00.704Z,10.65
2023-05-17T23:38:04.378Z,13.77
2023-05-17T23:40:07.684Z,10.52
2023-05-17T23:42:10.503Z,9.98
2023-05-17T23:44:12.640Z,12.75
2023-05-17T23:46:20.042Z,9.55
2023-05-17T23:48:25.762Z,10.23
2023-05-17T23:50:27.799Z,8.32
2023-05-17T23:52:32.941Z,11.70
2023-05-17T23:54:35.015Z,9.38
2023-05-17T23:56:37.165Z,11.38
2023-05-17T23:58:39.155Z,8.20
